Clearwater, Idaho
Current Conditions -  °F | °C
As of 8:35 AM on Thursday 29 Jan 2015 (Local Time) from KGIC Reporting Station
Clear Clear  
Wind Chill: 29°   Ceiling: Unl
Heat Index: 29°   Visibility: 10mi
Dew Point: 27°   Wind: 0mph
Humidity: 93%   Direction: NA
Pressure: 30.42"   Gusts: NA
Location:  46.2989°N, 115.619°W
Report Text: KGIC 291635Z AUTO 00000KT 10SM CLR M02/M03 A3042 RMK AO1 T10171027
Loading
Personal Weather Stations






























Interactive Weather Map New forecast layout! Learn more

10-Day Weather Forecast

Advertisements
Track Severe Weather on mobile